Tuesday, October 23, 2018, 8:54 PM EDT
Back to Local

KBLM, Belmar-farmingdale

Location: Farmingdale, NJ, United States Lat: 40.183
Local Time: 8:54 PM EDT ( 0:54 GMT) Lon: -74.133
Time Zone: US/Eastern Elev: 157 ft

Show me the last for .
Show Coded

Time T Td Feel RH Dir Speed Gust Alt SLP Vis Weather Sky Remarks
2018-10-23 18:56 60 41 - 49 280° 13 20 29.96 29.97 10 OVC080 None
2018-10-23 17:56 61 42 - 49 210° 7 - 29.93 29.95 10 CLR None
2018-10-23 16:56 62 42 - 47 220° 8 - 29.94 29.95 10 CLR None
2018-10-23 15:56 64 41 - 42 240° 13 20 29.94 29.96 10 CLR None
2018-10-23 14:56 64 41 - 42 220° 13 20 29.95 29.96 10 CLR None
2018-10-23 13:56 64 41 - 42 240° 10 18 29.97 29.98 10 CLR 6-hr Min Temp (2pm): 50.0°F
6-hr Max Temp (2pm): 64.9°F
2018-10-23 12:56 63 43 - 48 260° 10 - 30.00 30.01 10 CLR None
2018-10-23 11:56 61 44 - 53 240° 9 - 30.04 30.05 10 BKN075 None
2018-10-23 10:56 57 44 - 61 220° 9 - 30.06 30.07 10 SCT085 None
2018-10-23 09:56 55 45 - 68 210° 9 - 30.07 30.09 10 BKN090 None
2018-10-23 08:56 53 45 - 73 210° 6 - 30.09 30.10 10 OVC080 None
2018-10-23 07:56 50 44 48 79 190° 6 - 30.08 30.10 10 OVC085 6-hr Min Temp (8am): 44.1°F
6-hr Max Temp (8am): 50.0°F
2018-10-23 06:56 50 44 49 79 180° 3 - 30.09 30.11 10 OVC075 None
2018-10-23 05:56 49 44 48 83 170° 3 - 30.10 30.12 10 OVC080 None
2018-10-23 04:56 48 43 47 82 Variable 3 - 30.11 30.13 10 OVC080 None
2018-10-23 03:56 47 42 45 83 170° 5 - 30.13 30.15 10 OVC085 None
2018-10-23 02:56 46 40 44 79 160° 5 - 30.15 30.17 10 OVC095 None
2018-10-23 01:56 44 38 42 78 160° 5 - 30.16 30.18 10 BKN080 6-hr Min Temp (2am): 42.1°F
6-hr Max Temp (2am): 46.9°F
2018-10-23 00:56 44 38 43 78 180° 3 - 30.18 30.20 10 FEW075 24-hr Min Temp (1am): 32.0°F
24-hr Max Temp (1am): 54.0°F
2018-10-22 23:56 44 37 - 76 - Calm - 30.20 30.21 10 CLR None
2018-10-22 22:56 45 37 44 73 180° 3 - 30.20 30.21 10 CLR None
2018-10-22 21:56 46 36 44 67 200° 5 - 30.20 30.21 10 CLR None
2018-10-22 20:56 47 36 46 65 200° 3 - 30.19 30.21 10 CLR None

Support USWX by starting your Amazon purchase here.